Time;durP1;ratioP1;P1;durP2;ratioP2;P2;SDS_P1;SDS_P2;PMS_P1;PMS_P2;Temp;Humidity;BMP_temperature;BMP_pressure;BME280_temperature;BME280_humidity;BME280_pressure;Samples;Min_cycle;Max_cycle;Signal;HPM_P1;HPM_P2
2023/01/24 00:01:02;;;;;;;13.80;9.52;;;3.00;99.90;;;;;;5108125;28;20043;-88
2023/01/24 00:03:28;;;;;;;14.90;10.15;;;3.50;99.90;;;;;;5089894;28;20490;-89
2023/01/24 00:05:54;;;;;;;15.93;9.63;;;3.00;99.90;;;;;;5125374;28;20060;-88
2023/01/24 00:08:22;;;;;;;16.17;9.80;;;3.00;99.90;;;;;;5108437;28;20127;-88
2023/01/24 00:10:48;;;;;;;15.27;10.75;;;3.00;99.90;;;;;;5106816;28;20386;-89
2023/01/24 00:13:15;;;;;;;18.63;10.75;;;3.00;99.90;;;;;;5126922;28;20055;-88
2023/01/24 00:15:41;;;;;;;16.20;10.35;;;3.00;99.90;;;;;;5124150;28;20078;-88
2023/01/24 00:18:08;;;;;;;16.00;11.70;;;3.90;99.90;;;;;;5126628;28;20104;-88
2023/01/24 00:20:34;;;;;;;18.15;11.70;;;3.00;99.90;;;;;;5125391;28;20035;-90
2023/01/24 00:23:00;;;;;;;18.45;11.77;;;3.00;99.90;;;;;;5106932;28;20051;-88
2023/01/24 00:25:25;;;;;;;17.33;11.52;;;3.00;99.90;;;;;;5108184;28;20522;-89
2023/01/24 00:27:51;;;;;;;18.90;11.88;;;3.00;99.90;;;;;;5089163;28;20046;-89
2023/01/24 00:30:17;;;;;;;16.88;11.45;;;3.90;99.90;;;;;;5108338;28;20051;-88
2023/01/24 00:32:42;;;;;;;16.52;11.63;;;3.00;99.90;;;;;;5106165;28;20031;-89
2023/01/24 00:35:08;;;;;;;19.08;12.07;;;3.00;99.90;;;;;;5127007;28;20043;-89
2023/01/24 00:37:34;;;;;;;19.50;11.98;;;3.00;99.90;;;;;;5106706;28;20479;-89
2023/01/24 00:40:00;;;;;;;19.70;12.05;;;3.00;99.90;;;;;;5128029;28;20054;-89
2023/01/24 00:42:25;;;;;;;20.70;13.65;;;3.00;99.90;;;;;;5128571;28;20440;-88
2023/01/24 00:44:52;;;;;;;22.38;13.35;;;3.00;99.90;;;;;;5090800;28;20031;-88
2023/01/24 00:47:20;;;;;;;22.73;12.73;;;3.00;99.90;;;;;;5093700;28;20054;-88
2023/01/24 00:49:46;;;;;;;21.80;13.15;;;3.00;99.90;;;;;;5108612;28;20390;-89
2023/01/24 00:52:11;;;;;;;23.00;12.80;;;3.00;99.90;;;;;;5102431;27;20039;-89
2023/01/24 00:54:37;;;;;;;19.38;12.75;;;2.50;99.90;;;;;;5139586;27;20043;-88
2023/01/24 00:57:03;;;;;;;20.30;12.30;;;3.00;99.90;;;;;;5140595;27;20038;-89
2023/01/24 00:59:28;;;;;;;23.00;14.93;;;3.20;99.90;;;;;;5120881;27;20452;-88
2023/01/24 01:01:54;;;;;;;21.10;13.30;;;3.00;99.90;;;;;;5134838;27;20058;-88
2023/01/24 01:04:20;;;;;;;24.00;14.57;;;3.00;99.90;;;;;;5113467;27;20031;-89
2023/01/24 01:06:45;;;;;;;22.60;14.48;;;3.00;99.90;;;;;;5095979;27;20176;-89
2023/01/24 01:09:11;;;;;;;21.83;13.25;;;3.10;99.90;;;;;;5130146;27;20490;-88
2023/01/24 01:11:43;;;;;;;21.58;13.73;;;3.00;99.90;;;;;;5128025;27;20062;-87
2023/01/24 01:14:09;;;;;;;23.23;12.98;;;3.20;99.90;;;;;;5110749;27;20563;-88
2023/01/24 01:16:37;;;;;;;23.88;13.65;;;3.00;99.90;;;;;;5128500;27;20043;-89
2023/01/24 01:19:04;;;;;;;24.27;14.15;;;3.00;99.90;;;;;;5109867;27;20047;-87
2023/01/24 01:21:30;;;;;;;25.67;14.82;;;3.00;99.90;;;;;;5129782;27;20070;-88
2023/01/24 01:23:56;;;;;;;22.65;14.07;;;3.00;99.90;;;;;;5127345;27;20143;-88
2023/01/24 01:26:22;;;;;;;22.42;13.60;;;3.00;99.90;;;;;;5110949;27;20130;-88
2023/01/24 01:28:48;;;;;;;31.98;14.90;;;4.10;99.90;;;;;;5109145;27;20039;-89
2023/01/24 01:31:15;;;;;;;22.23;14.52;;;3.00;99.90;;;;;;5128903;27;20074;-88
2023/01/24 01:33:43;;;;;;;24.92;14.18;;;3.90;99.90;;;;;;5109614;27;20054;-88
2023/01/24 01:36:08;;;;;;;24.50;15.00;;;3.00;99.90;;;;;;5109478;27;20427;-89
2023/01/24 01:38:34;;;;;;;24.92;14.93;;;3.00;99.90;;;;;;5110874;27;20225;-88
2023/01/24 01:41:00;;;;;;;23.92;14.73;;;3.00;99.90;;;;;;5074625;27;20072;-89
2023/01/24 01:43:28;;;;;;;26.48;14.98;;;3.00;99.90;;;;;;5110456;27;20133;-88
2023/01/24 01:46:20;;;;;;;26.15;15.73;;;4.10;99.90;;;;;;5126954;27;20035;-88
2023/01/24 01:48:53;;;;;;;25.58;15.27;;;3.00;99.90;;;;;;5084089;27;20066;-88
2023/01/24 01:51:44;;;;;;;27.63;15.68;;;3.00;99.90;;;;;;5110181;27;20093;-89
2023/01/24 01:54:16;;;;;;;27.00;13.85;;;3.50;99.90;;;;;;5126774;27;20090;-88
2023/01/24 01:56:55;;;;;;;24.10;15.85;;;3.00;99.90;;;;;;5109965;27;20062;-89
2023/01/24 01:59:29;;;;;;;27.17;16.50;;;3.10;99.90;;;;;;5109306;27;20463;-89
2023/01/24 02:01:57;;;;;;;22.40;14.55;;;3.00;99.90;;;;;;5092371;27;20402;-88
2023/01/24 02:04:31;;;;;;;24.05;14.80;;;3.10;99.90;;;;;;5127874;27;20394;-89
2023/01/24 02:07:09;;;;;;;28.08;16.20;;;3.00;99.90;;;;;;5107645;27;20049;-88
2023/01/24 02:09:42;;;;;;;25.10;15.68;;;3.10;99.90;;;;;;5092728;27;20057;-88
2023/01/24 02:12:17;;;;;;;25.77;15.63;;;3.60;99.90;;;;;;5108609;27;20047;-87
2023/01/24 02:17:31;;;;;;;26.60;14.73;;;3.00;99.90;;;;;;5109738;27;20052;-88
2023/01/24 02:20:09;;;;;;;29.48;14.80;;;3.00;99.90;;;;;;5125838;27;20043;-88
2023/01/24 02:22:43;;;;;;;24.65;14.75;;;3.00;99.90;;;;;;5108819;27;20103;-88
2023/01/24 02:25:26;;;;;;;26.98;16.27;;;3.80;99.90;;;;;;5091413;27;20058;-88
2023/01/24 02:27:52;;;;;;;22.70;15.05;;;3.00;99.90;;;;;;5108079;27;20063;-88
2023/01/24 02:30:18;;;;;;;26.25;15.95;;;3.00;99.90;;;;;;5093123;27;20097;-89
2023/01/24 02:32:44;;;;;;;26.92;16.48;;;3.00;99.90;;;;;;5107068;27;20458;-87
2023/01/24 02:35:31;;;;;;;28.80;15.93;;;3.00;99.90;;;;;;5109149;27;20045;-89
2023/01/24 02:38:00;;;;;;;26.73;16.15;;;4.40;99.90;;;;;;5107941;27;20133;-89
2023/01/24 02:40:28;;;;;;;27.98;15.68;;;3.00;99.90;;;;;;5107774;27;20111;-88
2023/01/24 02:42:57;;;;;;;27.23;16.00;;;3.00;99.90;;;;;;5109195;27;20047;-88
2023/01/24 02:45:26;;;;;;;26.10;16.42;;;3.00;99.90;;;;;;5125809;27;20047;-88
2023/01/24 02:47:53;;;;;;;23.00;15.40;;;3.00;99.90;;;;;;5128074;27;20043;-89
2023/01/24 02:50:21;;;;;;;27.88;17.08;;;3.00;99.90;;;;;;5125768;27;20053;-89
2023/01/24 02:55:32;;;;;;;29.58;16.77;;;3.00;99.90;;;;;;5108961;27;20058;-88
2023/01/24 02:58:07;;;;;;;23.40;16.00;;;3.00;99.90;;;;;;5107459;27;20039;-89
2023/01/24 03:00:39;;;;;;;26.60;16.23;;;3.40;99.90;;;;;;5093247;27;20486;-89
2023/01/24 03:03:06;;;;;;;24.38;16.23;;;3.00;99.90;;;;;;5089673;27;20035;-89
2023/01/24 03:08:35;;;;;;;25.20;16.02;;;3.00;99.90;;;;;;5043585;28;20037;-88
2023/01/24 03:11:01;;;;;;;27.98;15.93;;;3.00;99.90;;;;;;5090371;27;20055;-88
2023/01/24 03:35:22;;;;;;;24.60;16.08;;;3.00;99.90;;;;;;5090556;28;20147;-88
2023/01/24 03:40:32;;;;;;;22.30;14.60;;;3.00;99.90;;;;;;5089982;28;20101;-88
2023/01/24 03:43:00;;;;;;;26.80;16.58;;;3.00;99.90;;;;;;5104654;28;20048;-88
2023/01/24 03:45:31;;;;;;;25.73;16.17;;;3.00;99.90;;;;;;5103016;28;20048;-89
2023/01/24 03:47:59;;;;;;;28.30;15.23;;;3.00;99.90;;;;;;5104880;28;20474;-89
2023/01/24 03:53:23;;;;;;;27.90;15.20;;;3.00;99.90;;;;;;5106167;28;20059;-88
2023/01/24 03:55:59;;;;;;;25.52;15.70;;;3.00;99.90;;;;;;5107149;28;20097;-88
2023/01/24 03:58:27;;;;;;;26.85;15.52;;;3.00;99.90;;;;;;5105914;28;20047;-88
2023/01/24 04:00:53;;;;;;;26.52;15.45;;;3.00;99.90;;;;;;5088682;28;20096;-88
2023/01/24 04:03:19;;;;;;;24.75;15.65;;;3.00;99.90;;;;;;5107620;28;20044;-88
2023/01/24 04:05:49;;;;;;;22.60;14.88;;;3.10;99.90;;;;;;5106901;28;20046;-88
2023/01/24 04:08:15;;;;;;;24.35;15.15;;;3.00;99.90;;;;;;5088353;28;20054;-88
2023/01/24 04:10:41;;;;;;;22.85;14.73;;;4.30;99.90;;;;;;5104643;28;20495;-88
2023/01/24 04:13:09;;;;;;;23.63;15.75;;;3.00;99.90;;;;;;5088479;28;20047;-88
2023/01/24 04:15:34;;;;;;;24.30;15.30;;;3.00;99.90;;;;;;5111528;28;20597;-88
2023/01/24 04:18:02;;;;;;;22.42;13.90;;;3.00;99.90;;;;;;5098681;28;20040;-88
2023/01/24 04:20:30;;;;;;;21.83;14.00;;;4.30;99.90;;;;;;5114325;28;20043;-88
2023/01/24 04:22:59;;;;;;;22.17;14.48;;;3.00;99.90;;;;;;5114886;28;20122;-88
2023/01/24 04:25:24;;;;;;;21.95;14.27;;;3.00;99.90;;;;;;5115989;28;20043;-88
2023/01/24 04:27:50;;;;;;;20.50;14.15;;;3.00;99.90;;;;;;5114435;28;20222;-88
2023/01/24 04:30:16;;;;;;;21.00;13.45;;;3.00;99.90;;;;;;5091603;28;20079;-89
2023/01/24 04:32:42;;;;;;;22.85;13.77;;;3.50;99.90;;;;;;5108966;28;20082;-88
2023/01/24 04:35:14;;;;;;;24.08;14.60;;;3.00;99.90;;;;;;5110600;28;20463;-88
2023/01/24 04:37:40;;;;;;;20.08;13.48;;;3.00;99.90;;;;;;5108055;28;20198;-89
2023/01/24 04:40:07;;;;;;;21.30;13.93;;;3.00;99.90;;;;;;5090569;28;20060;-88
2023/01/24 04:42:33;;;;;;;26.23;14.25;;;3.00;99.90;;;;;;5108957;28;20058;-88
2023/01/24 04:44:58;;;;;;;25.90;14.00;;;3.00;99.90;;;;;;5107169;28;20043;-88
2023/01/24 04:47:24;;;;;;;22.63;13.48;;;3.00;99.90;;;;;;5109104;28;20063;-88
2023/01/24 04:49:50;;;;;;;20.45;12.95;;;3.00;99.90;;;;;;5107862;28;20051;-88
2023/01/24 04:52:15;;;;;;;18.27;11.10;;;3.00;99.90;;;;;;5109415;28;20039;-88
2023/01/24 04:54:41;;;;;;;17.40;11.52;;;3.00;99.90;;;;;;5106231;28;20540;-88
2023/01/24 04:57:10;;;;;;;19.80;12.30;;;3.00;99.90;;;;;;5109141;28;20562;-88
2023/01/24 04:59:36;;;;;;;18.85;12.10;;;3.00;99.90;;;;;;5109041;28;20048;-88
2023/01/24 05:02:02;;;;;;;17.27;12.48;;;4.00;99.90;;;;;;5107690;28;20517;-88
2023/01/24 05:04:27;;;;;;;20.08;12.07;;;3.00;99.90;;;;;;5107232;28;20513;-89
2023/01/24 05:06:53;;;;;;;20.52;12.20;;;3.00;99.90;;;;;;5106335;28;20079;-89
2023/01/24 05:09:19;;;;;;;19.42;12.27;;;3.10;99.90;;;;;;5109499;28;20046;-88
2023/01/24 05:11:45;;;;;;;15.32;11.00;;;3.00;99.90;;;;;;5106299;28;20402;-88
2023/01/24 05:14:11;;;;;;;15.50;12.15;;;3.00;99.90;;;;;;5124276;27;20067;-88
2023/01/24 05:16:37;;;;;;;15.30;11.23;;;3.00;99.90;;;;;;5093161;27;20039;-89
2023/01/24 05:19:03;;;;;;;14.30;10.10;;;3.50;99.90;;;;;;5092972;27;20054;-88
2023/01/24 05:21:29;;;;;;;15.60;10.23;;;3.00;99.90;;;;;;5128989;27;20066;-88
2023/01/24 05:23:55;;;;;;;15.98;10.65;;;3.00;99.90;;;;;;5128241;27;20150;-88
2023/01/24 05:26:24;;;;;;;15.45;10.35;;;4.20;99.90;;;;;;5110226;27;20206;-89
2023/01/24 05:28:50;;;;;;;15.82;10.00;;;3.00;99.90;;;;;;5108977;27;20050;-88
2023/01/24 05:31:16;;;;;;;16.40;10.73;;;3.30;99.90;;;;;;5093496;27;20050;-88
2023/01/24 05:33:42;;;;;;;18.88;11.63;;;3.00;99.90;;;;;;5092483;27;20046;-89
2023/01/24 05:36:20;;;;;;;16.27;11.10;;;3.10;99.90;;;;;;5128041;27;20465;-89
2023/01/24 05:38:46;;;;;;;17.23;11.65;;;3.10;99.90;;;;;;5128299;27;20430;-89
2023/01/24 05:41:18;;;;;;;20.20;12.07;;;3.90;99.90;;;;;;5109202;27;20533;-89
2023/01/24 05:43:45;;;;;;;17.00;10.85;;;4.10;99.90;;;;;;5110346;27;20079;-90
2023/01/24 05:46:18;;;;;;;17.15;11.82;;;3.10;99.90;;;;;;5109326;27;20047;-87
2023/01/24 05:48:45;;;;;;;15.88;11.65;;;3.10;99.90;;;;;;5110722;27;20042;-91
2023/01/24 05:51:13;;;;;;;17.95;12.88;;;3.10;99.90;;;;;;5110271;27;20059;-91
2023/01/24 05:53:40;;;;;;;20.60;13.00;;;3.10;99.90;;;;;;5109734;27;20092;-89
2023/01/24 05:56:12;;;;;;;18.35;11.77;;;3.60;99.90;;;;;;5093426;27;20047;-90
2023/01/24 05:58:39;;;;;;;21.37;12.60;;;3.10;99.90;;;;;;5110681;27;20039;-89
2023/01/24 06:01:16;;;;;;;19.13;11.23;;;3.00;99.90;;;;;;5128980;27;20050;-89
2023/01/24 06:03:43;;;;;;;19.20;12.10;;;3.10;99.90;;;;;;5109093;27;20077;-89
2023/01/24 06:06:10;;;;;;;19.00;12.40;;;3.70;99.90;;;;;;5128152;27;20043;-88
2023/01/24 06:08:37;;;;;;;20.85;12.93;;;3.10;99.90;;;;;;5109300;27;20166;-89
2023/01/24 06:11:09;;;;;;;19.40;12.77;;;3.10;99.90;;;;;;5127423;27;20040;-91
2023/01/24 06:13:35;;;;;;;21.73;12.10;;;3.00;99.90;;;;;;5106393;28;20065;-90
2023/01/24 06:16:03;;;;;;;20.13;12.80;;;3.00;99.90;;;;;;5105171;28;20059;-88
2023/01/24 06:18:29;;;;;;;19.48;11.77;;;3.60;99.90;;;;;;5106189;28;20047;-88
2023/01/24 06:20:56;;;;;;;16.70;11.70;;;4.00;99.90;;;;;;5106536;28;20494;-88
2023/01/24 06:23:27;;;;;;;17.35;12.02;;;3.00;99.90;;;;;;5105429;28;20501;-87
2023/01/24 06:25:53;;;;;;;16.40;11.07;;;3.00;99.90;;;;;;5107538;28;20028;-87
2023/01/24 06:28:19;;;;;;;22.08;13.45;;;3.00;99.90;;;;;;5106711;28;20044;-88
2023/01/24 06:31:03;;;;;;;19.13;12.90;;;3.00;99.90;;;;;;5105475;28;20053;-87
2023/01/24 06:33:36;;;;;;;21.35;14.00;;;3.00;99.90;;;;;;5106245;28;20047;-86
2023/01/24 06:36:21;;;;;;;22.23;13.07;;;3.00;99.90;;;;;;5105882;28;20126;-85
2023/01/24 06:38:47;;;;;;;21.35;13.82;;;3.70;99.90;;;;;;5104698;28;20529;-87
2023/01/24 06:41:17;;;;;;;20.67;12.80;;;1.80;99.90;;;;;;5104724;28;20035;-86
2023/01/24 06:43:44;;;;;;;21.98;13.23;;;2.90;99.90;;;;;;5106619;28;20052;-86
2023/01/24 06:46:11;;;;;;;19.67;13.10;;;3.00;99.90;;;;;;5103964;28;20048;-86
2023/01/24 06:48:37;;;;;;;21.73;13.55;;;3.00;99.90;;;;;;5106106;28;20047;-87
2023/01/24 06:51:03;;;;;;;25.55;14.25;;;3.00;99.90;;;;;;5087505;28;20039;-86
2023/01/24 06:53:29;;;;;;;21.70;12.35;;;3.00;99.90;;;;;;5104717;28;20035;-86
2023/01/24 06:55:54;;;;;;;23.38;15.02;;;2.50;99.90;;;;;;5104797;28;20044;-87
2023/01/24 06:58:20;;;;;;;21.65;13.30;;;2.90;99.90;;;;;;5104186;28;20502;-86
2023/01/24 07:00:45;;;;;;;21.33;13.68;;;3.10;99.90;;;;;;5105099;28;20039;-86
2023/01/24 07:03:11;;;;;;;21.08;13.05;;;4.00;99.90;;;;;;5104889;28;20048;-86
2023/01/24 07:05:38;;;;;;;26.58;14.32;;;2.90;99.90;;;;;;5106692;28;20028;-87
2023/01/24 07:08:05;;;;;;;23.08;14.32;;;2.90;99.90;;;;;;5105475;28;20043;-86
2023/01/24 07:10:31;;;;;;;22.98;14.55;;;2.90;99.90;;;;;;5105854;28;20051;-86
2023/01/24 07:12:57;;;;;;;20.40;13.05;;;2.90;99.90;;;;;;5110246;27;20055;-86
2023/01/24 07:15:23;;;;;;;21.75;13.68;;;2.90;99.90;;;;;;5125869;27;20482;-86
2023/01/24 07:17:49;;;;;;;22.70;13.55;;;2.90;99.90;;;;;;5126222;27;20047;-86
2023/01/24 07:20:15;;;;;;;21.10;12.77;;;2.90;99.90;;;;;;5090138;27;20474;-86
2023/01/24 07:22:41;;;;;;;20.23;12.70;;;2.90;99.90;;;;;;5108772;27;20590;-86
2023/01/24 07:25:17;;;;;;;22.05;13.30;;;2.90;99.90;;;;;;5125543;27;20057;-86
2023/01/24 07:27:43;;;;;;;19.98;13.10;;;2.90;99.90;;;;;;5125838;27;20047;-87
2023/01/24 07:30:11;;;;;;;23.88;14.23;;;2.90;99.90;;;;;;5107651;27;20081;-86
2023/01/24 07:32:37;;;;;;;20.73;13.70;;;2.90;99.90;;;;;;5090680;28;20474;-87
2023/01/24 07:35:03;;;;;;;23.23;12.80;;;3.90;99.90;;;;;;5090741;27;20051;-86
2023/01/24 07:37:29;;;;;;;17.48;12.00;;;2.90;99.90;;;;;;5107113;27;20039;-86
2023/01/24 07:39:55;;;;;;;19.23;11.52;;;2.90;99.90;;;;;;5091807;28;20043;-86
2023/01/24 07:42:21;;;;;;;18.20;10.38;;;4.20;99.90;;;;;;5092744;27;20062;-86
2023/01/24 07:44:46;;;;;;;18.08;11.13;;;2.90;99.90;;;;;;5115875;28;20039;-86
2023/01/24 07:47:12;;;;;;;15.00;10.20;;;2.90;99.90;;;;;;5098673;28;20092;-86
2023/01/24 07:49:38;;;;;;;16.55;10.43;;;2.90;99.90;;;;;;5095030;28;20047;-86
2023/01/24 07:52:03;;;;;;;15.10;10.07;;;2.90;99.90;;;;;;5126860;28;20057;-86
2023/01/24 07:54:29;;;;;;;16.92;9.52;;;2.90;99.90;;;;;;5107345;28;20107;-86
2023/01/24 07:56:55;;;;;;;16.55;10.98;;;2.90;99.90;;;;;;5126700;28;20087;-87
2023/01/24 07:59:20;;;;;;;18.60;10.73;;;2.90;99.90;;;;;;5106569;28;20431;-86
2023/01/24 08:01:46;;;;;;;15.82;9.85;;;2.90;99.90;;;;;;5092184;27;20043;-86
2023/01/24 08:04:12;;;;;;;15.50;9.73;;;2.90;99.90;;;;;;5111530;27;20043;-87
2023/01/24 08:07:16;;;;;;;14.57;9.32;;;3.40;99.90;;;;;;5093847;27;20144;-86
2023/01/24 08:09:29;;;;;;;14.27;8.82;;;2.90;99.90;;;;;;5097071;27;20043;-86
2023/01/24 08:11:56;;;;;;;15.20;9.80;;;2.90;99.90;;;;;;5110432;27;20043;-86
2023/01/24 08:14:21;;;;;;;13.52;9.02;;;2.90;99.90;;;;;;5111822;27;20055;-86
2023/01/24 08:16:48;;;;;;;12.48;9.00;;;2.90;99.90;;;;;;5093667;27;20453;-86
2023/01/24 08:19:14;;;;;;;12.55;8.98;;;2.90;99.90;;;;;;5094273;27;20043;-86
2023/01/24 08:21:43;;;;;;;14.80;8.68;;;2.90;99.90;;;;;;5110880;27;20051;-85
2023/01/24 08:24:08;;;;;;;15.35;9.50;;;2.90;99.90;;;;;;5110721;27;20349;-86
2023/01/24 08:26:34;;;;;;;14.18;8.98;;;2.90;99.90;;;;;;5129377;27;20550;-86
2023/01/24 08:29:00;;;;;;;15.18;9.60;;;2.90;99.90;;;;;;5110560;27;20570;-86
2023/01/24 08:31:25;;;;;;;13.10;8.55;;;4.20;99.90;;;;;;5130176;27;20051;-86
2023/01/24 08:33:51;;;;;;;13.63;8.20;;;3.20;99.90;;;;;;5128928;27;20096;-86
2023/01/24 08:36:22;;;;;;;14.70;8.82;;;2.90;99.90;;;;;;5093720;27;20435;-86
2023/01/24 08:38:47;;;;;;;13.77;9.10;;;2.90;99.90;;;;;;5129268;27;20394;-85
2023/01/24 08:41:13;;;;;;;12.90;7.93;;;2.90;99.90;;;;;;5129147;27;20057;-86
2023/01/24 08:43:39;;;;;;;13.48;8.55;;;2.90;99.90;;;;;;5110552;27;20403;-86
2023/01/24 08:46:04;;;;;;;13.27;8.38;;;2.90;99.90;;;;;;5109821;27;20054;-85
2023/01/24 08:48:30;;;;;;;13.05;8.32;;;3.00;99.90;;;;;;5110826;27;20050;-86
2023/01/24 08:50:57;;;;;;;15.93;8.52;;;3.00;99.90;;;;;;5128427;27;20095;-85
2023/01/24 08:53:22;;;;;;;14.65;8.35;;;3.00;99.90;;;;;;5128841;27;20043;-86
2023/01/24 08:55:49;;;;;;;13.18;8.15;;;4.00;99.90;;;;;;5110564;27;20051;-86
2023/01/24 08:58:16;;;;;;;12.68;8.63;;;3.00;99.90;;;;;;5109932;27;20453;-85
2023/01/24 09:00:42;;;;;;;11.90;8.18;;;3.00;99.90;;;;;;5110083;27;20583;-86
2023/01/24 09:03:10;;;;;;;16.15;8.65;;;3.90;99.90;;;;;;5109885;27;20043;-85
2023/01/24 09:05:38;;;;;;;11.50;7.63;;;3.00;99.90;;;;;;5128852;27;20494;-85
2023/01/24 09:08:04;;;;;;;13.07;8.60;;;3.00;99.90;;;;;;5128186;27;20108;-85
2023/01/24 09:10:30;;;;;;;12.85;8.23;;;3.00;99.90;;;;;;5110389;27;20045;-85
2023/01/24 09:12:56;;;;;;;15.43;9.15;;;3.00;99.90;;;;;;5127609;27;20047;-87
2023/01/24 09:15:22;;;;;;;13.98;8.52;;;3.10;99.90;;;;;;5109022;28;20050;-86
2023/01/24 09:17:47;;;;;;;14.90;8.82;;;3.00;99.90;;;;;;5108287;28;20038;-86
2023/01/24 09:20:13;;;;;;;12.30;8.25;;;3.10;99.90;;;;;;5126738;28;20035;-86
2023/01/24 09:22:39;;;;;;;13.88;8.75;;;3.10;99.90;;;;;;5092278;28;20043;-86
2023/01/24 09:25:07;;;;;;;12.95;8.65;;;3.10;99.90;;;;;;5074450;28;20066;-86
2023/01/24 09:27:34;;;;;;;13.77;8.32;;;3.10;99.90;;;;;;5109759;28;20490;-86
2023/01/24 09:29:59;;;;;;;12.82;7.38;;;3.10;99.90;;;;;;5110537;28;20035;-87
2023/01/24 09:32:25;;;;;;;11.45;8.18;;;3.10;99.90;;;;;;5127932;28;20522;-87
2023/01/24 09:34:51;;;;;;;13.23;7.75;;;3.10;99.90;;;;;;5127141;28;20042;-88
2023/01/24 09:37:21;;;;;;;11.75;7.40;;;3.20;99.90;;;;;;5091720;28;20050;-85
2023/01/24 09:39:47;;;;;;;10.93;7.40;;;3.70;99.90;;;;;;5108763;28;20043;-86
2023/01/24 09:42:24;;;;;;;12.55;7.95;;;4.50;99.90;;;;;;5126579;28;20067;-86
2023/01/24 09:45:22;;;;;;;12.65;7.65;;;3.20;99.90;;;;;;5091238;28;20464;-87
2023/01/24 09:47:56;;;;;;;12.05;8.10;;;3.20;99.90;;;;;;5108097;28;20097;-86
2023/01/24 09:50:38;;;;;;;10.38;7.07;;;3.20;99.90;;;;;;5107866;28;20043;-88
2023/01/24 09:53:04;;;;;;;13.43;7.32;;;3.20;99.90;;;;;;5091785;28;20054;-86
2023/01/24 09:55:39;;;;;;;11.15;7.57;;;3.20;99.90;;;;;;5090686;28;20402;-86
2023/01/24 09:58:39;;;;;;;10.20;6.43;;;3.30;99.90;;;;;;5125973;28;20074;-86
2023/01/24 10:01:14;;;;;;;12.27;7.70;;;3.30;99.90;;;;;;5123196;28;20047;-86
2023/01/24 10:03:41;;;;;;;12.15;7.75;;;2.70;99.90;;;;;;5126200;28;20252;-86
2023/01/24 10:06:23;;;;;;;10.82;7.82;;;3.30;99.90;;;;;;5108461;28;20050;-86
2023/01/24 10:08:49;;;;;;;11.65;7.57;;;3.30;99.90;;;;;;5126367;28;20039;-86
2023/01/24 10:11:37;;;;;;;10.13;6.60;;;3.30;99.90;;;;;;5090545;28;20043;-86
2023/01/24 10:14:26;;;;;;;10.85;6.88;;;3.10;99.90;;;;;;5006808;27;2886932;-86
2023/01/24 10:17:13;;;;;;;9.65;6.45;;;3.30;99.90;;;;;;5108422;27;20051;-86
2023/01/24 10:20:01;;;;;;;11.38;7.55;;;3.30;99.90;;;;;;5108704;27;20146;-86
2023/01/24 10:22:48;;;;;;;10.50;6.57;;;3.30;99.90;;;;;;5092100;27;20138;-86
2023/01/24 10:25:29;;;;;;;10.60;6.70;;;3.30;99.90;;;;;;5107680;27;20073;-86
2023/01/24 10:27:59;;;;;;;11.55;7.32;;;3.30;99.90;;;;;;5108533;27;20054;-85
2023/01/24 10:30:40;;;;;;;10.43;6.60;;;3.70;99.90;;;;;;5107930;27;20505;-87
2023/01/24 10:33:16;;;;;;;11.70;7.15;;;3.40;99.90;;;;;;5112376;27;20050;-85
2023/01/24 10:35:58;;;;;;;10.55;7.10;;;3.40;99.90;;;;;;5092043;27;20048;-84
2023/01/24 10:38:25;;;;;;;14.68;7.22;;;3.60;99.90;;;;;;5108086;27;20043;-85
2023/01/24 10:40:58;;;;;;;11.02;7.20;;;3.40;99.90;;;;;;5091489;27;20043;-84
2023/01/24 10:43:29;;;;;;;11.63;7.95;;;3.50;99.90;;;;;;5108172;27;20047;-84
2023/01/24 10:45:54;;;;;;;11.80;7.10;;;3.50;99.90;;;;;;5091060;27;20039;-84
2023/01/24 10:48:35;;;;;;;11.35;7.88;;;3.50;99.90;;;;;;5108183;27;20043;-84
2023/01/24 10:51:14;;;;;;;10.32;7.03;;;3.50;99.90;;;;;;5090825;27;20165;-84
2023/01/24 10:53:40;;;;;;;11.93;7.68;;;3.50;99.90;;;;;;5108394;27;20393;-85
2023/01/24 10:56:06;;;;;;;11.02;7.38;;;4.70;99.90;;;;;;5090825;27;20122;-84
2023/01/24 10:59:04;;;;;;;13.13;7.72;;;3.50;99.90;;;;;;5107674;27;20047;-84
2023/01/24 11:01:38;;;;;;;9.90;6.85;;;3.50;99.90;;;;;;5091656;27;20051;-87
2023/01/24 11:04:21;;;;;;;11.48;7.78;;;3.50;99.90;;;;;;5108429;27;20043;-86
2023/01/24 11:06:49;;;;;;;10.48;7.47;;;3.70;99.90;;;;;;5117150;27;20047;-87
2023/01/24 11:09:30;;;;;;;11.65;7.45;;;3.50;99.90;;;;;;5116273;27;20494;-87
2023/01/24 11:11:59;;;;;;;10.52;7.47;;;3.50;99.90;;;;;;5117707;27;20414;-86
2023/01/24 11:14:34;;;;;;;11.02;7.43;;;3.60;99.90;;;;;;5112133;28;20047;-86
2023/01/24 11:17:01;;;;;;;13.77;7.43;;;3.60;99.90;;;;;;5110444;28;20059;-87
2023/01/24 11:19:33;;;;;;;12.90;7.15;;;3.60;99.90;;;;;;5115049;28;20050;-88
2023/01/24 11:22:19;;;;;;;14.50;7.32;;;3.60;99.90;;;;;;5117270;28;20472;-87
2023/01/24 11:24:46;;;;;;;12.38;7.47;;;3.60;99.90;;;;;;5108241;28;20044;-87
2023/01/24 11:27:19;;;;;;;10.70;7.45;;;3.60;99.90;;;;;;5109663;28;20059;-86
2023/01/24 11:30:13;;;;;;;11.07;7.25;;;3.60;99.90;;;;;;5090813;28;20043;-87
2023/01/24 11:32:39;;;;;;;12.02;8.07;;;3.60;99.90;;;;;;5107448;28;20557;-85
2023/01/24 11:35:11;;;;;;;11.18;7.50;;;3.80;99.90;;;;;;5106944;28;20105;-86
2023/01/24 11:37:39;;;;;;;14.05;7.88;;;3.60;99.90;;;;;;5091094;28;20083;-87
2023/01/24 11:40:41;;;;;;;11.52;7.50;;;3.60;99.90;;;;;;5107822;28;20051;-87
2023/01/24 11:43:31;;;;;;;12.40;7.72;;;3.60;99.90;;;;;;5108810;28;20487;-87
2023/01/24 11:46:32;;;;;;;10.65;7.40;;;3.60;99.90;;;;;;5107597;28;20039;-87
2023/01/24 11:49:10;;;;;;;13.02;7.65;;;3.50;99.90;;;;;;5108239;28;20426;-86
2023/01/24 11:51:52;;;;;;;13.48;7.85;;;3.50;99.90;;;;;;5090785;28;20142;-87
2023/01/24 11:54:36;;;;;;;11.57;8.05;;;3.60;99.90;;;;;;5107985;28;20422;-87
2023/01/24 11:57:33;;;;;;;11.73;7.35;;;3.60;99.90;;;;;;5107983;28;20074;-87
2023/01/24 12:00:08;;;;;;;11.20;7.97;;;3.60;99.90;;;;;;5096611;28;20055;-87
2023/01/24 12:03:02;;;;;;;14.65;8.90;;;3.60;99.90;;;;;;5090523;28;20043;-87
2023/01/24 12:06:05;;;;;;;12.15;8.70;;;3.60;99.90;;;;;;5107855;28;20040;-85
2023/01/24 12:08:54;;;;;;;15.38;8.25;;;3.60;99.90;;;;;;5090497;28;20047;-87
2023/01/24 12:11:38;;;;;;;12.05;8.02;;;3.60;99.90;;;;;;5107394;28;20063;-87
2023/01/24 12:14:12;;;;;;;13.43;8.43;;;3.60;99.90;;;;;;5120380;27;20063;-87
2023/01/24 12:16:42;;;;;;;13.20;8.18;;;3.60;99.90;;;;;;5129331;28;20399;-86
2023/01/24 12:19:27;;;;;;;11.60;7.88;;;3.60;99.90;;;;;;5094010;28;20050;-90
2023/01/24 12:21:55;;;;;;;13.45;8.10;;;3.60;99.90;;;;;;5110645;28;20108;-88
2023/01/24 12:24:37;;;;;;;13.40;8.32;;;3.70;99.90;;;;;;5110390;28;20050;-87
2023/01/24 12:27:12;;;;;;;14.17;6.03;;;3.60;99.90;;;;;;5110448;28;20118;-86
2023/01/24 12:29:48;;;;;;;14.05;8.57;;;3.60;99.90;;;;;;5109636;28;20795;-89
2023/01/24 12:32:28;;;;;;;15.20;8.45;;;3.60;99.90;;;;;;5092369;28;20063;-87
2023/01/24 12:35:01;;;;;;;11.73;8.65;;;3.60;99.90;;;;;;5109277;28;20035;-88
2023/01/24 12:37:41;;;;;;;14.52;8.80;;;3.60;99.90;;;;;;5127992;28;20046;-87
2023/01/24 12:40:23;;;;;;;14.48;8.85;;;3.60;99.90;;;;;;5109562;28;20047;-87
2023/01/24 12:43:09;;;;;;;13.52;8.52;;;3.60;99.90;;;;;;5127675;28;20139;-86
2023/01/24 12:45:45;;;;;;;13.60;8.75;;;3.60;99.90;;;;;;5093179;28;20046;-87
2023/01/24 12:48:35;;;;;;;14.40;8.77;;;3.60;99.90;;;;;;5112576;27;20043;-86
2023/01/24 12:51:28;;;;;;;13.88;8.90;;;3.60;99.90;;;;;;5113308;27;20062;-88
2023/01/24 12:54:19;;;;;;;18.35;9.52;;;3.60;99.90;;;;;;5113342;27;20047;-88
2023/01/24 12:56:54;;;;;;;15.18;9.38;;;3.60;99.90;;;;;;5096785;27;20050;-88
2023/01/24 12:59:25;;;;;;;14.07;9.15;;;3.60;99.90;;;;;;5113193;27;20332;-88
2023/01/24 13:02:29;;;;;;;14.10;8.52;;;3.50;99.90;;;;;;5078952;27;20043;-86
2023/01/24 13:05:09;;;;;;;14.73;9.60;;;3.70;99.90;;;;;;5076716;27;20055;-88
2023/01/24 13:08:15;;;;;;;11.90;8.50;;;3.70;99.90;;;;;;5112660;27;20039;-89
2023/01/24 13:11:01;;;;;;;16.02;9.70;;;3.70;99.90;;;;;;5095655;27;20068;-89
2023/01/24 13:13:40;;;;;;;14.02;8.77;;;3.70;99.90;;;;;;5108919;28;20102;-89
2023/01/24 13:16:43;;;;;;;12.98;9.07;;;3.70;99.90;;;;;;5111207;28;20131;-89
2023/01/24 13:19:24;;;;;;;14.90;9.50;;;3.70;99.90;;;;;;5092579;28;20578;-89
2023/01/24 13:22:12;;;;;;;13.85;9.45;;;3.70;99.90;;;;;;5109280;28;20046;-89
2023/01/24 13:25:07;;;;;;;15.10;9.40;;;3.70;99.90;;;;;;5093316;28;20092;-89
2023/01/24 13:28:14;;;;;;;14.77;8.85;;;3.60;99.90;;;;;;5101185;28;20054;-88
2023/01/24 13:30:48;;;;;;;13.27;8.88;;;3.60;99.90;;;;;;5100713;28;20049;-89
2023/01/24 13:33:18;;;;;;;12.98;9.38;;;3.90;99.90;;;;;;5092953;28;20070;-88
2023/01/24 13:35:54;;;;;;;13.75;9.20;;;3.60;99.90;;;;;;5091955;28;20043;-88
2023/01/24 13:38:26;;;;;;;15.88;10.27;;;3.60;99.90;;;;;;5108900;28;20047;-89